Time;durP1;ratioP1;P1;durP2;ratioP2;P2;SDS_P1;SDS_P2;PMS_P1;PMS_P2;Temp;Humidity;BMP_temperature;BMP_pressure;BME280_temperature;BME280_humidity;BME280_pressure;Samples;Min_cycle;Max_cycle;Signal;HPM_P1;HPM_P2
2022/05/23 00:01:51;;;;;;;6.15;5.15;;;;;;;12.43;93.36;94569.66;5053196;27;20112;-66
2022/05/23 00:04:17;;;;;;;6.63;4.43;;;;;;;12.33;92.26;94565.13;5080658;27;20525;-66
2022/05/23 00:06:45;;;;;;;6.70;4.32;;;;;;;12.23;91.68;94570.28;5067199;27;20052;-66
2022/05/23 00:09:14;;;;;;;6.82;3.83;;;;;;;12.04;92.13;94578.44;5038278;27;20037;-65
2022/05/23 00:11:41;;;;;;;7.47;4.40;;;;;;;11.87;92.29;94577.72;5081937;27;20127;-66
2022/05/23 00:14:09;;;;;;;5.38;4.30;;;;;;;11.74;92.38;94572.84;5068771;27;20045;-65
2022/05/23 00:16:40;;;;;;;7.10;4.32;;;;;;;11.65;93.13;94578.50;5076343;27;20062;-66
2022/05/23 00:19:11;;;;;;;6.78;4.45;;;;;;;11.56;93.43;94572.16;5059058;27;20045;-66
2022/05/23 00:21:42;;;;;;;6.82;4.53;;;;;;;11.50;94.25;94573.09;5071030;27;20512;-66
2022/05/23 00:24:10;;;;;;;7.03;4.40;;;;;;;11.40;94.89;94558.13;5055423;27;20044;-66
2022/05/23 00:26:40;;;;;;;8.48;4.50;;;;;;;11.47;95.23;94569.16;5038490;27;20564;-65
2022/05/23 00:29:07;;;;;;;6.20;4.57;;;;;;;11.49;95.28;94571.53;5034218;27;20069;-65
2022/05/23 00:31:35;;;;;;;6.18;4.20;;;;;;;11.45;95.11;94565.22;5051685;27;20522;-65
2022/05/23 00:36:48;;;;;;;6.53;4.70;;;;;;;11.42;95.59;94565.72;5036095;27;20650;-65
2022/05/23 00:39:14;;;;;;;12.30;4.50;;;;;;;11.45;96.12;94557.38;5071455;27;20042;-66
2022/05/23 00:44:32;;;;;;;6.03;4.60;;;;;;;11.49;100.00;94561.13;5069979;27;20042;-65
2022/05/23 00:47:20;;;;;;;7.22;4.60;;;;;;;11.64;100.00;94558.66;5057307;27;20754;-65
2022/05/23 00:49:47;;;;;;;6.88;5.20;;;;;;;11.67;100.00;94558.19;5072687;27;20042;-65
2022/05/23 00:52:32;;;;;;;7.35;5.22;;;;;;;11.72;100.00;94559.25;5081963;27;20736;-65
2022/05/23 00:55:04;;;;;;;6.22;5.13;;;;;;;11.64;100.00;94563.88;5039084;27;20165;-65
2022/05/23 00:57:40;;;;;;;5.88;4.30;;;;;;;11.45;100.00;94565.22;5077715;27;20046;-66
2022/05/23 01:00:09;;;;;;;5.75;3.97;;;;;;;11.39;100.00;94561.75;5041369;27;20447;-66
2022/05/23 01:02:37;;;;;;;6.18;4.15;;;;;;;11.30;99.31;94573.63;5041468;27;20045;-65
2022/05/23 01:05:08;;;;;;;7.90;4.97;;;;;;;11.15;98.48;94563.81;5048966;27;20113;-65
2022/05/23 01:07:35;;;;;;;8.38;5.18;;;;;;;11.06;98.30;94557.44;5073548;27;20517;-65
2022/05/23 01:10:04;;;;;;;5.18;4.10;;;;;;;11.00;98.60;94563.59;5041757;27;20045;-65
2022/05/23 01:12:31;;;;;;;8.77;5.35;;;;;;;10.92;99.06;94567.41;5035733;27;20064;-65
2022/05/23 01:15:00;;;;;;;6.55;4.40;;;;;;;10.74;100.00;94565.84;5036795;27;20760;-66
2022/05/23 01:17:29;;;;;;;8.88;5.40;;;;;;;10.72;100.00;94562.69;5037526;27;20043;-65
2022/05/23 01:20:01;;;;;;;8.80;5.20;;;;;;;10.67;99.67;94549.56;5048299;27;20245;-65
2022/05/23 01:22:40;;;;;;;6.72;4.72;;;;;;;10.58;100.00;94545.81;5043151;27;20805;-65
2022/05/23 01:25:44;;;;;;;5.57;4.43;;;;;;;10.45;100.00;94542.47;5034898;27;20117;-65
2022/05/23 01:28:21;;;;;;;8.38;4.68;;;;;;;10.34;100.00;94545.94;5037331;27;20045;-65
2022/05/23 01:30:48;;;;;;;8.05;4.95;;;;;;;10.25;100.00;94544.75;5075637;27;20534;-65
2022/05/23 01:33:23;;;;;;;6.82;4.65;;;;;;;10.11;100.00;94537.22;5057030;27;20045;-65
2022/05/23 01:35:50;;;;;;;7.68;5.30;;;;;;;10.10;100.00;94538.25;5055046;27;20045;-65
2022/05/23 01:38:17;;;;;;;7.55;5.18;;;;;;;10.13;100.00;94544.78;5140346;27;20076;-65
2022/05/23 01:40:59;;;;;;;9.50;5.35;;;;;;;10.00;100.00;94551.06;5048797;27;20115;-65
2022/05/23 01:43:27;;;;;;;6.80;5.05;;;;;;;9.94;100.00;94544.22;5040646;27;20053;-65
2022/05/23 01:46:14;;;;;;;7.22;5.18;;;;;;;9.83;100.00;94513.81;5052284;27;20219;-66
2022/05/23 01:49:01;;;;;;;8.48;5.15;;;;;;;9.90;100.00;94530.06;5048667;27;20137;-65
2022/05/23 01:51:28;;;;;;;8.77;6.05;;;;;;;9.90;100.00;94535.28;5037139;27;20988;-65
2022/05/23 01:53:55;;;;;;;8.48;5.47;;;;;;;9.91;100.00;94548.06;5086343;27;20547;-65
2022/05/23 01:56:22;;;;;;;8.95;5.88;;;;;;;9.93;100.00;94540.03;5044471;27;20051;-65
2022/05/23 02:01:43;;;;;;;12.60;5.30;;;;;;;9.99;100.00;94549.50;5037654;27;20500;-65
2022/05/23 02:04:17;;;;;;;8.13;5.22;;;;;;;9.93;100.00;94553.03;5036154;27;20049;-65
2022/05/23 02:06:44;;;;;;;7.57;5.20;;;;;;;9.86;100.00;94549.78;5036014;27;20460;-65
2022/05/23 02:09:26;;;;;;;9.32;5.47;;;;;;;9.88;100.00;94551.13;5035155;27;20117;-65
2022/05/23 02:12:17;;;;;;;8.55;5.72;;;;;;;9.95;100.00;94553.59;5032123;27;20053;-65
2022/05/23 02:14:47;;;;;;;11.30;5.50;;;;;;;9.94;100.00;94557.22;5036791;27;21246;-65
2022/05/23 02:17:33;;;;;;;8.20;5.53;;;;;;;9.90;100.00;94556.91;5039842;27;20101;-64
2022/05/23 02:20:02;;;;;;;8.18;6.00;;;;;;;9.84;100.00;94562.25;5048026;27;20051;-65
2022/05/23 02:22:29;;;;;;;10.15;5.72;;;;;;;9.79;100.00;94564.75;5037518;27;20148;-65
2022/05/23 02:25:13;;;;;;;7.72;6.05;;;;;;;9.64;100.00;94563.44;5039664;27;20049;-65
2022/05/23 02:27:40;;;;;;;7.50;5.20;;;;;;;9.58;100.00;94569.56;5036769;27;20041;-65
2022/05/23 02:30:08;;;;;;;13.02;6.15;;;;;;;9.53;100.00;94553.88;5035971;27;20041;-65
2022/05/23 02:32:35;;;;;;;10.05;5.97;;;;;;;9.52;100.00;94566.06;5036823;27;20569;-65
2022/05/23 02:35:07;;;;;;;7.85;5.45;;;;;;;9.52;100.00;94560.06;5049444;27;20590;-65
2022/05/23 02:37:34;;;;;;;8.18;6.00;;;;;;;9.52;100.00;94565.28;5035515;27;20148;-65
2022/05/23 02:40:03;;;;;;;12.07;6.30;;;;;;;9.42;100.00;94544.25;5037184;27;20051;-65
2022/05/23 02:42:31;;;;;;;10.05;6.13;;;;;;;9.50;100.00;94556.91;5039685;27;20044;-65
2022/05/23 02:45:02;;;;;;;12.30;6.10;;;;;;;9.53;100.00;94541.66;5035006;27;20141;-65
2022/05/23 02:47:29;;;;;;;9.07;5.97;;;;;;;9.58;100.00;94553.97;5045379;27;20090;-64
2022/05/23 02:50:01;;;;;;;12.00;5.75;;;;;;;9.56;100.00;94555.97;5031540;27;20060;-65
2022/05/23 02:52:37;;;;;;;14.95;6.70;;;;;;;9.65;100.00;94559.81;5041401;27;20072;-64
2022/05/23 02:55:17;;;;;;;9.23;6.45;;;;;;;9.70;100.00;94557.28;5046510;27;20050;-65
2022/05/23 02:57:44;;;;;;;10.25;5.72;;;;;;;9.71;100.00;94564.09;5039357;27;20147;-64
2022/05/23 03:00:24;;;;;;;9.20;5.78;;;;;;;9.65;100.00;94544.22;5031372;27;20570;-64
2022/05/23 03:03:02;;;;;;;8.27;5.80;;;;;;;9.75;100.00;94544.38;5044512;27;20231;-64
2022/05/23 03:05:46;;;;;;;9.68;5.75;;;;;;;9.84;100.00;94560.41;5038643;27;20581;-65
2022/05/23 03:08:17;;;;;;;9.70;6.07;;;;;;;9.90;100.00;94556.09;5032254;27;20519;-64
2022/05/23 03:10:44;;;;;;;12.48;6.18;;;;;;;10.00;100.00;94561.50;5034532;27;20584;-65
2022/05/23 03:13:12;;;;;;;10.65;6.68;;;;;;;10.01;100.00;94547.47;5051630;27;20098;-65
2022/05/23 03:15:39;;;;;;;10.25;6.60;;;;;;;10.20;100.00;94549.84;5034206;27;20068;-65
2022/05/23 03:18:06;;;;;;;10.38;6.25;;;;;;;10.25;100.00;94542.13;5046394;27;20080;-65
2022/05/23 03:20:36;;;;;;;10.95;7.32;;;;;;;10.31;100.00;94547.19;5141287;27;20064;-65
2022/05/23 03:28:40;;;;;;;9.95;6.03;;;;;;;10.62;100.00;94542.47;5105565;27;20184;-65
2022/05/23 03:31:07;;;;;;;11.95;6.40;;;;;;;10.72;100.00;94531.44;5041508;27;20037;-66
2022/05/23 03:33:35;;;;;;;11.25;6.28;;;;;;;10.77;100.00;94534.09;5034481;27;20168;-65
2022/05/23 03:36:03;;;;;;;9.48;6.57;;;;;;;10.87;100.00;94530.84;5018279;27;20084;-66
2022/05/23 03:38:30;;;;;;;9.38;5.90;;;;;;;10.92;100.00;94524.94;5035327;27;20044;-65
2022/05/23 03:41:04;;;;;;;11.15;6.53;;;;;;;10.94;100.00;94513.22;5035038;27;20045;-66
2022/05/23 03:43:31;;;;;;;8.50;6.13;;;;;;;11.00;100.00;94532.31;5038444;27;20118;-65
2022/05/23 03:46:09;;;;;;;9.85;6.15;;;;;;;11.06;100.00;94532.16;5034649;27;20602;-65
2022/05/23 03:48:38;;;;;;;10.25;6.65;;;;;;;11.22;100.00;94533.16;5033026;27;20511;-65
2022/05/23 03:51:08;;;;;;;8.88;5.75;;;;;;;11.29;100.00;94530.38;5129326;27;20440;-65
2022/05/23 03:53:35;;;;;;;10.48;6.07;;;;;;;11.41;100.00;94522.41;5116044;27;20048;-65
2022/05/23 03:56:06;;;;;;;8.80;5.65;;;;;;;11.54;100.00;94518.63;5044538;27;20424;-65
2022/05/23 03:58:55;;;;;;;8.07;6.32;;;;;;;11.64;100.00;94532.56;5032311;27;20147;-63
2022/05/23 04:01:30;;;;;;;9.05;6.05;;;;;;;11.67;100.00;94537.31;5035398;27;20467;-63
2022/05/23 04:04:15;;;;;;;8.32;5.82;;;;;;;11.71;100.00;94545.44;5020872;27;20049;-63
2022/05/23 04:07:01;;;;;;;;;;;;;;;11.79;100.00;94554.66;5035772;27;20061;-66
2022/05/23 04:09:35;;;;;;;9.20;5.22;;;;;;;11.77;100.00;94541.06;5038418;27;20394;-64
2022/05/23 04:12:03;;;;;;;8.27;5.38;;;;;;;11.82;100.00;94543.72;5029058;27;20531;-66
2022/05/23 04:14:30;;;;;;;8.82;5.70;;;;;;;11.73;100.00;94529.56;5034656;27;20045;-65
2022/05/23 04:16:57;;;;;;;7.93;5.00;;;;;;;11.92;100.00;94537.84;5038376;27;20056;-64
2022/05/23 04:19:25;;;;;;;7.63;4.82;;;;;;;11.98;100.00;94527.22;5076414;27;20132;-64
2022/05/23 04:22:27;;;;;;;6.32;5.13;;;;;;;12.03;100.00;94514.22;5053880;27;20043;-65
2022/05/23 04:25:05;;;;;;;8.38;5.10;;;;;;;12.12;100.00;94529.41;5130765;27;20057;-64
2022/05/23 04:27:33;;;;;;;9.02;5.70;;;;;;;12.23;100.00;94528.50;5035418;27;20047;-64
2022/05/23 04:30:02;;;;;;;7.20;5.05;;;;;;;12.36;100.00;94554.19;5031696;27;20064;-67
2022/05/23 04:35:23;;;;;;;6.75;5.03;;;;;;;12.62;97.92;94541.31;5056152;27;20804;-64
2022/05/23 04:37:53;;;;;;;11.18;5.70;;;;;;;12.69;96.93;94535.88;5044027;27;20044;-65
2022/05/23 04:40:28;;;;;;;6.97;4.80;;;;;;;12.98;97.24;94534.53;5040605;27;20048;-65
2022/05/23 04:42:57;;;;;;;6.10;4.38;;;;;;;13.23;96.84;94535.69;5047809;27;20060;-65
2022/05/23 04:45:25;;;;;;;8.45;5.93;;;;;;;13.48;95.63;94534.25;5051719;27;20614;-65
2022/05/23 04:51:00;;;;;;;7.25;4.22;;;;;;;13.92;92.59;94521.56;5037772;27;20068;-65
2022/05/23 04:53:34;;;;;;;11.90;4.97;;;;;;;14.06;92.00;94513.19;5052129;27;20049;-66
2022/05/23 04:56:07;;;;;;;8.07;4.75;;;;;;;14.29;91.53;94523.19;5136206;27;20057;-64
2022/05/23 04:58:34;;;;;;;8.27;5.82;;;;;;;14.57;89.31;94520.28;5038649;27;20086;-64
2022/05/23 05:01:02;;;;;;;7.80;4.90;;;;;;;14.67;86.48;94534.22;5045246;27;20049;-64
2022/05/23 05:03:31;;;;;;;7.43;5.28;;;;;;;14.72;86.31;94521.09;5049483;27;20422;-64
2022/05/23 05:05:57;;;;;;;9.32;5.32;;;;;;;14.67;87.32;94531.59;5036329;27;20045;-65
2022/05/23 05:08:24;;;;;;;7.28;5.22;;;;;;;14.60;87.61;94510.09;5042483;27;20033;-65
2022/05/23 05:10:54;;;;;;;7.65;4.85;;;;;;;14.78;88.70;94531.59;5027142;27;20060;-64
2022/05/23 05:13:21;;;;;;;8.73;5.28;;;;;;;14.83;88.54;94539.44;5034617;27;20047;-65
2022/05/23 05:15:48;;;;;;;10.18;6.15;;;;;;;14.94;88.38;94530.50;5037103;27;20209;-65
2022/05/23 05:18:30;;;;;;;8.45;5.10;;;;;;;14.96;87.54;94528.41;5040426;27;20653;-64
2022/05/23 05:21:23;;;;;;;8.93;5.75;;;;;;;14.99;87.43;94521.84;5038089;27;20059;-65
2022/05/23 05:24:23;;;;;;;7.13;4.72;;;;;;;15.15;85.14;94520.75;5058177;27;20049;-64
2022/05/23 05:27:10;;;;;;;9.38;5.03;;;;;;;15.31;84.50;94512.88;5043871;27;20722;-65
2022/05/23 05:29:37;;;;;;;7.05;4.53;;;;;;;15.46;85.88;94520.66;5053922;27;20176;-65
2022/05/23 05:32:14;;;;;;;5.38;4.18;;;;;;;15.59;83.68;94516.66;5041200;27;20053;-66
2022/05/23 05:34:52;;;;;;;14.63;4.65;;;;;;;15.80;83.39;94514.75;5052984;27;20049;-64
2022/05/23 05:37:30;;;;;;;17.60;4.53;;;;;;;16.06;82.15;94518.00;5023682;27;20331;-66
2022/05/23 05:40:02;;;;;;;5.22;3.65;;;;;;;16.24;78.59;94520.00;5041017;27;20057;-65
2022/05/23 05:42:34;;;;;;;5.07;3.58;;;;;;;16.40;78.25;94494.41;5032032;27;20052;-66
2022/05/23 05:45:06;;;;;;;6.03;3.67;;;;;;;16.56;77.85;94504.78;5029866;27;20049;-66
2022/05/23 05:47:37;;;;;;;7.45;3.28;;;;;;;16.55;77.00;94514.53;5037932;27;20036;-66
2022/05/23 05:50:20;;;;;;;5.07;3.28;;;;;;;16.55;75.71;94509.25;5033856;27;20084;-66
2022/05/23 05:53:07;;;;;;;5.30;2.97;;;;;;;16.78;73.55;94522.72;5038080;27;20059;-66
2022/05/23 05:55:40;;;;;;;4.03;3.28;;;;;;;16.88;74.34;94537.66;5034515;27;20129;-64
2022/05/23 05:58:08;;;;;;;6.35;3.50;;;;;;;16.96;75.09;94524.72;5032450;27;20041;-64
2022/05/23 06:00:43;;;;;;;4.28;2.53;;;;;;;17.30;74.88;94523.81;5031950;27;20072;-64
2022/05/23 06:03:10;;;;;;;5.35;2.88;;;;;;;17.56;71.31;94526.16;5034538;27;20519;-65
2022/05/23 06:11:26;;;;;;;5.90;2.85;;;;;;;17.96;68.56;94522.25;5032717;27;20110;-65
2022/05/23 06:14:08;;;;;;;3.28;1.92;;;;;;;18.08;68.79;94521.06;5019888;27;20045;-70
2022/05/23 06:16:39;;;;;;;3.70;2.42;;;;;;;18.11;68.68;94515.19;5124265;27;20150;-70
2022/05/23 06:19:19;;;;;;;5.47;3.28;;;;;;;18.12;69.90;94508.88;5015459;27;20040;-70
2022/05/23 06:22:13;;;;;;;;;;;;;;;18.35;69.74;94509.84;5041341;27;20059;-76
2022/05/23 06:24:51;;;;;;;3.03;2.40;;;;;;;18.35;67.10;94504.56;5025268;27;20352;-75
2022/05/23 06:27:18;;;;;;;2.50;1.73;;;;;;;18.52;66.37;94515.34;5033616;27;20520;-73
2022/05/23 06:30:07;;;;;;;7.03;2.67;;;;;;;18.56;67.15;94493.69;5120621;27;20134;-74
2022/05/23 06:32:43;;;;;;;3.35;2.78;;;;;;;18.71;66.98;94498.72;5034127;27;20965;-70
2022/05/23 06:35:14;;;;;;;3.05;2.35;;;;;;;18.77;67.88;94505.47;5051566;27;20516;-71
2022/05/23 06:37:43;;;;;;;3.25;2.65;;;;;;;18.82;66.95;94504.63;5034962;27;21264;-75
2022/05/23 06:40:28;;;;;;;3.17;2.35;;;;;;;18.73;66.00;94493.94;5048405;27;20060;-75
2022/05/23 06:43:18;;;;;;;4.43;2.67;;;;;;;18.68;66.83;94475.56;5036582;27;20541;-75
2022/05/23 06:46:05;;;;;;;3.40;2.00;;;;;;;19.07;66.70;94495.47;5040449;27;20096;-65
2022/05/23 06:48:49;;;;;;;6.22;2.85;;;;;;;19.13;65.85;94496.94;5041533;27;20046;-71
2022/05/23 06:51:34;;;;;;;3.45;2.35;;;;;;;19.06;65.37;94475.44;5020609;27;20045;-64
2022/05/23 06:54:02;;;;;;;3.63;2.35;;;;;;;19.38;65.16;94492.25;5130274;27;20053;-72
2022/05/23 06:56:42;;;;;;;6.05;2.30;;;;;;;19.43;65.05;94484.25;5029305;27;20048;-65
2022/05/23 06:59:13;;;;;;;3.50;2.08;;;;;;;19.55;63.00;94487.13;5034433;27;20567;-66
2022/05/23 07:01:45;;;;;;;2.88;2.20;;;;;;;19.75;62.18;94475.38;5027545;27;20630;-66
2022/05/23 07:04:22;;;;;;;3.60;1.83;;;;;;;19.81;62.58;94478.72;5035596;27;20310;-66
2022/05/23 07:12:42;;;;;;;5.60;1.27;;;;;;;19.99;55.34;94496.28;5128223;27;20055;-68
2022/05/23 07:15:10;;;;;;;3.03;1.60;;;;;;;20.08;55.00;94500.84;5027580;27;20124;-68
2022/05/23 07:17:39;;;;;;;2.30;1.27;;;;;;;20.06;56.15;94485.31;5033766;27;20515;-65
2022/05/23 07:20:21;;;;;;;3.50;1.70;;;;;;;20.20;54.75;94474.66;5020695;27;20227;-64
2022/05/23 07:23:05;;;;;;;2.80;1.48;;;;;;;20.51;54.71;94484.53;5031852;27;20503;-64
2022/05/23 07:25:37;;;;;;;3.10;2.30;;;;;;;20.80;53.72;94482.25;5132040;27;20497;-64
2022/05/23 07:28:08;;;;;;;2.08;1.50;;;;;;;20.77;51.23;94488.13;5028201;27;20097;-64
2022/05/23 07:30:35;;;;;;;3.90;2.15;;;;;;;20.79;52.61;94488.59;5031734;27;20451;-64
2022/05/23 07:33:03;;;;;;;3.63;1.85;;;;;;;20.88;52.86;94487.88;5038323;27;20075;-64
2022/05/23 07:36:00;;;;;;;2.50;1.65;;;;;;;20.90;52.38;94491.00;5039053;27;20056;-63
2022/05/23 07:38:28;;;;;;;3.25;1.55;;;;;;;21.01;50.78;94487.00;5037658;27;20049;-64
2022/05/23 07:40:59;;;;;;;2.38;1.10;;;;;;;20.92;49.69;94488.81;5033751;27;20060;-64
2022/05/23 07:43:37;;;;;;;1.85;1.25;;;;;;;20.93;50.09;94501.00;5032664;27;20274;-64
2022/05/23 07:46:09;;;;;;;1.95;1.33;;;;;;;20.84;49.08;94500.94;5032801;27;20052;-65
2022/05/23 07:48:49;;;;;;;1.55;1.02;;;;;;;21.15;49.68;94487.69;5031505;27;20102;-65
2022/05/23 07:51:20;;;;;;;4.03;1.10;;;;;;;21.40;48.04;94488.09;5026595;27;20159;-64
2022/05/23 08:02:20;;;;;;;2.67;1.30;;;;;;;21.40;46.60;94488.09;5126859;27;20053;-68
2022/05/23 08:04:59;;;;;;;2.08;1.13;;;;;;;21.48;44.88;94500.63;5039073;27;20045;-69
2022/05/23 08:07:29;;;;;;;1.60;0.93;;;;;;;21.61;45.78;94487.53;5036007;27;20133;-69
2022/05/23 08:10:00;;;;;;;2.45;1.20;;;;;;;21.80;44.20;94490.69;5020458;27;20076;-69
2022/05/23 08:12:31;;;;;;;1.25;1.00;;;;;;;21.75;44.24;94490.81;5034695;27;20048;-73
2022/05/23 08:14:59;;;;;;;5.03;1.33;;;;;;;21.95;43.08;94503.50;5021033;27;20041;-73
2022/05/23 08:17:32;;;;;;;1.92;1.00;;;;;;;22.07;43.02;94479.00;5036087;27;20041;-73
2022/05/23 08:20:14;;;;;;;2.33;1.40;;;;;;;22.40;43.20;94464.50;5041915;27;20526;-74
2022/05/23 08:22:42;;;;;;;2.08;1.05;;;;;;;22.63;41.87;94479.13;5032932;27;20050;-73
2022/05/23 08:25:19;;;;;;;4.47;0.93;;;;;;;22.49;40.33;94489.16;5117108;27;20053;-73
2022/05/23 08:27:54;;;;;;;1.13;0.63;;;;;;;22.39;41.24;94500.09;5101591;27;20408;-74
2022/05/23 08:30:24;;;;;;;1.75;1.15;;;;;;;22.36;41.39;94490.09;5036754;27;20070;-74
2022/05/23 08:33:02;;;;;;;1.50;0.88;;;;;;;22.49;40.78;94468.72;5034238;27;20514;-74
2022/05/23 08:35:29;;;;;;;1.45;0.90;;;;;;;22.45;40.61;94483.69;5130446;27;21147;-74
2022/05/23 08:38:00;;;;;;;3.95;1.70;;;;;;;22.48;41.01;94469.03;5102674;27;20055;-74
2022/05/23 08:41:19;;;;;;;3.40;1.10;;;;;;;22.61;38.91;94478.66;5028128;27;20045;-74
2022/05/23 08:44:17;;;;;;;3.22;1.10;;;;;;;22.95;39.14;94474.38;5108611;27;20530;-73
2022/05/23 08:47:01;;;;;;;5.53;1.67;;;;;;;23.28;39.43;94484.41;5036975;27;20044;-73
2022/05/23 08:49:42;;;;;;;3.75;0.93;;;;;;;23.11;38.85;94471.22;5132743;27;20037;-73
2022/05/23 08:52:22;;;;;;;7.05;1.13;;;;;;;22.97;39.32;94472.16;5019517;27;20128;-74
2022/05/23 08:55:14;;;;;;;2.53;1.20;;;;;;;22.98;38.09;94468.44;5032682;27;20110;-74
2022/05/23 08:58:00;;;;;;;2.80;1.20;;;;;;;23.15;37.44;94461.53;5037857;27;20053;-74
2022/05/23 09:00:41;;;;;;;2.08;1.02;;;;;;;23.17;37.80;94470.72;5040472;27;20037;-74
2022/05/23 09:03:30;;;;;;;2.03;1.00;;;;;;;23.23;37.84;94474.00;5115515;27;20072;-74
2022/05/23 09:06:06;;;;;;;1.75;0.98;;;;;;;23.16;38.56;94463.88;5029829;27;20056;-74
2022/05/23 09:08:50;;;;;;;1.95;0.93;;;;;;;23.25;37.65;94463.81;5022017;27;20045;-74
2022/05/23 09:11:28;;;;;;;1.10;0.80;;;;;;;23.27;36.55;94472.25;5037480;27;20059;-74
2022/05/23 09:13:56;;;;;;;1.77;1.02;;;;;;;23.13;37.32;94453.09;5034903;27;20079;-73
2022/05/23 09:16:28;;;;;;;1.02;0.73;;;;;;;23.36;37.65;94472.97;5016890;27;20271;-67
2022/05/23 09:19:02;;;;;;;6.32;1.58;;;;;;;23.71;37.79;94456.06;5129717;27;20493;-69
2022/05/23 09:24:17;;;;;;;2.13;1.17;;;;;;;23.82;36.89;94463.38;5034778;27;20045;-71
2022/05/23 09:26:45;;;;;;;2.03;1.00;;;;;;;23.63;36.31;94449.69;5032823;27;20489;-67
2022/05/23 09:29:12;;;;;;;11.18;1.80;;;;;;;23.56;37.54;94449.44;5039033;27;20033;-67
2022/05/23 09:31:56;;;;;;;1.35;1.23;;;;;;;23.72;35.88;94469.03;5036585;27;20440;-66
2022/05/23 09:34:36;;;;;;;2.95;1.00;;;;;;;23.90;36.06;94447.69;5038606;27;20056;-67
2022/05/23 09:37:17;;;;;;;3.42;1.02;;;;;;;24.21;34.86;94457.91;5038000;27;20523;-68
2022/05/23 09:39:58;;;;;;;4.50;0.90;;;;;;;24.05;35.44;94460.38;5039974;27;20041;-72
2022/05/23 09:48:20;;;;;;;1.75;0.80;;;;;;;23.97;35.49;94447.94;5033914;27;20037;-65
2022/05/23 09:51:01;;;;;;;1.10;0.68;;;;;;;24.46;34.82;94448.13;5037507;27;20041;-67
2022/05/23 09:53:27;;;;;;;1.63;0.70;;;;;;;24.24;34.52;94444.72;5045337;27;20522;-66
2022/05/23 09:56:28;;;;;;;3.53;1.20;;;;;;;24.60;34.05;94437.97;5040146;27;20152;-68
2022/05/23 09:58:59;;;;;;;12.60;1.95;;;;;;;24.90;34.86;94448.47;5037232;27;20034;-69
2022/05/23 10:01:29;;;;;;;4.22;1.60;;;;;;;25.10;34.37;94443.38;5041206;27;20056;-66
2022/05/23 10:03:56;;;;;;;5.00;1.00;;;;;;;25.19;33.78;94454.69;5051181;27;20607;-67
2022/05/23 10:06:36;;;;;;;1.65;0.85;;;;;;;24.98;33.55;94436.94;5063688;27;20647;-66
2022/05/23 10:09:07;;;;;;;3.75;1.00;;;;;;;25.28;33.76;94439.44;5045092;27;20041;-71
2022/05/23 10:12:06;;;;;;;1.20;1.00;;;;;;;25.51;32.79;94420.28;5042960;27;20049;-67
2022/05/23 10:14:43;;;;;;;1.20;0.90;;;;;;;25.98;32.89;94437.66;5040003;27;20083;-72
2022/05/23 10:17:24;;;;;;;2.53;1.50;;;;;;;26.06;32.24;94424.19;5021745;27;20545;-66
2022/05/23 10:19:51;;;;;;;1.77;1.13;;;;;;;26.04;32.92;94442.44;5039262;27;20048;-66
2022/05/23 10:22:25;;;;;;;2.10;0.95;;;;;;;25.72;31.17;94439.59;5040137;27;20041;-66
2022/05/23 10:24:56;;;;;;;1.63;1.10;;;;;;;26.01;32.41;94437.75;5041141;27;20053;-67
2022/05/23 10:27:44;;;;;;;4.75;1.15;;;;;;;25.98;30.61;94438.44;5036257;27;20045;-67
2022/05/23 10:30:14;;;;;;;2.63;0.80;;;;;;;26.04;32.00;94429.09;5033988;27;20051;-68
2022/05/23 10:32:56;;;;;;;2.42;1.00;;;;;;;25.61;30.85;94419.84;5058441;27;20396;-68
2022/05/23 10:35:42;;;;;;;2.17;1.02;;;;;;;26.13;30.67;94429.72;5040001;27;20097;-67
2022/05/23 10:44:12;;;;;;;0.98;0.82;;;;;;;26.35;29.98;94432.97;5039958;27;20611;-67
2022/05/23 10:46:44;;;;;;;1.83;0.80;;;;;;;25.88;31.17;94417.56;5044016;27;20098;-67
2022/05/23 10:49:55;;;;;;;3.80;0.88;;;;;;;25.18;32.12;94403.28;5043211;27;20038;-67
2022/05/23 10:52:30;;;;;;;2.53;1.38;;;;;;;25.12;32.07;94403.84;5040044;27;20506;-67
2022/05/23 10:55:08;;;;;;;1.92;1.10;;;;;;;25.07;33.05;94385.44;5036680;27;20083;-77
2022/05/23 10:57:59;;;;;;;2.13;1.02;;;;;;;25.45;33.94;94392.31;5064567;27;20050;-75
2022/05/23 11:00:37;;;;;;;3.53;1.60;;;;;;;26.31;32.32;94400.06;5077819;27;20055;-75
2022/05/23 11:03:15;;;;;;;1.40;1.08;;;;;;;26.75;30.76;94384.03;5045428;27;20045;-77
2022/05/23 11:06:07;;;;;;;3.35;0.90;;;;;;;26.58;31.29;94395.00;5044110;27;20136;-76
2022/05/23 11:08:52;;;;;;;5.10;1.10;;;;;;;26.28;31.52;94403.41;5041233;27;20052;-76
2022/05/23 11:11:31;;;;;;;1.20;0.90;;;;;;;26.45;31.46;94392.44;5057695;27;20041;-75
2022/05/23 11:14:13;;;;;;;3.35;1.30;;;;;;;26.64;30.61;94399.03;5029599;27;20075;-76
2022/05/23 11:16:46;;;;;;;2.33;1.20;;;;;;;27.06;30.21;94366.41;5050887;27;20117;-75
2022/05/23 11:19:50;;;;;;;1.73;1.13;;;;;;;27.25;30.77;94387.88;5017823;27;20037;-76
2022/05/23 11:22:23;;;;;;;3.75;0.90;;;;;;;27.07;30.12;94397.38;5044975;27;20086;-76
2022/05/23 11:25:08;;;;;;;1.42;1.00;;;;;;;27.13;29.75;94393.31;5052234;27;20055;-76
2022/05/23 11:33:46;;;;;;;2.15;1.20;;;;;;;27.93;29.26;94391.25;5058522;27;20048;-75
2022/05/23 11:36:24;;;;;;;1.88;1.30;;;;;;;27.17;29.19;94393.38;5039162;27;20055;-75
2022/05/23 11:38:52;;;;;;;3.00;0.82;;;;;;;26.41;30.55;94391.53;5040953;27;20055;-76
2022/05/23 11:41:54;;;;;;;1.75;1.02;;;;;;;25.79;31.55;94372.34;5030376;27;20512;-75
2022/05/23 11:44:43;;;;;;;5.72;1.20;;;;;;;26.18;31.32;94404.69;4939005;28;20062;-76
2022/05/23 11:47:11;;;;;;;4.97;1.20;;;;;;;26.42;31.18;94393.09;5121081;27;20136;-70
2022/05/23 11:49:41;;;;;;;2.75;1.08;;;;;;;26.77;30.57;94389.78;5040103;27;20052;-77
2022/05/23 11:52:23;;;;;;;2.30;1.40;;;;;;;26.45;31.79;94392.44;5055834;27;20044;-76
2022/05/23 11:54:51;;;;;;;3.10;1.80;;;;;;;26.12;31.30;94396.13;5039420;27;20100;-75
2022/05/23 11:57:35;;;;;;;1.20;1.10;;;;;;;26.49;30.75;94392.53;5027180;27;20523;-75
2022/05/23 12:00:26;;;;;;;3.22;0.73;;;;;;;26.68;30.79;94391.88;5120079;27;20045;-75
2022/05/23 12:03:09;;;;;;;3.13;1.05;;;;;;;27.43;30.40;94398.22;5054813;27;20048;-77
2022/05/23 12:05:36;;;;;;;0.82;0.75;;;;;;;27.55;29.82;94408.81;5051454;27;21903;-76
2022/05/23 12:08:06;;;;;;;3.17;1.10;;;;;;;27.37;30.44;94404.94;5068788;27;20050;-76
2022/05/23 12:10:36;;;;;;;2.58;1.50;;;;;;;26.99;29.91;94396.44;5048021;27;20645;-76
2022/05/23 12:13:29;;;;;;;1.25;0.70;;;;;;;27.41;29.65;94403.13;5041015;27;20052;-68
2022/05/23 12:15:58;;;;;;;2.28;1.30;;;;;;;26.97;30.36;94395.22;5043265;27;20077;-68
2022/05/23 12:18:25;;;;;;;3.60;1.33;;;;;;;27.38;29.62;94390.47;5037357;27;20056;-68
2022/05/23 12:20:55;;;;;;;2.45;0.80;;;;;;;27.26;29.34;94392.13;5034982;27;20351;-70
2022/05/23 12:23:42;;;;;;;1.27;1.17;;;;;;;27.85;29.68;94394.88;5037461;27;20041;-70
2022/05/23 12:26:09;;;;;;;3.33;0.93;;;;;;;27.41;29.19;94381.75;5036682;27;20447;-70
2022/05/23 12:29:01;;;;;;;1.85;1.27;;;;;;;27.15;29.12;94375.03;5032575;27;20037;-67
2022/05/23 12:31:27;;;;;;;2.08;1.38;;;;;;;27.30;29.51;94375.38;5036118;27;20048;-68
2022/05/23 12:34:03;;;;;;;1.05;0.70;;;;;;;26.95;29.93;94386.78;5048545;27;20057;-68
2022/05/23 12:36:34;;;;;;;2.65;1.02;;;;;;;27.00;29.60;94389.19;5042374;27;20044;-70
2022/05/23 12:39:29;;;;;;;4.32;1.00;;;;;;;26.77;29.48;94386.34;5036788;27;20591;-68
2022/05/23 12:41:58;;;;;;;1.13;0.70;;;;;;;26.44;29.60;94390.88;5038306;27;20045;-68
2022/05/23 12:44:47;;;;;;;2.25;1.10;;;;;;;26.35;29.60;94390.25;5039495;27;20049;-68
2022/05/23 12:47:41;;;;;;;1.88;0.95;;;;;;;26.50;29.89;94389.47;5036705;27;20041;-67
2022/05/23 12:50:45;;;;;;;1.73;0.93;;;;;;;26.48;28.80;94391.72;5038684;27;20445;-68
2022/05/23 12:53:37;;;;;;;1.27;0.85;;;;;;;27.05;29.41;94375.56;5040672;27;20747;-69
2022/05/23 12:56:26;;;;;;;1.67;1.17;;;;;;;27.72;29.04;94390.81;5041238;27;20225;-69
2022/05/23 12:59:30;;;;;;;1.33;0.80;;;;;;;27.70;28.18;94393.06;5042815;27;20830;-68
2022/05/23 13:02:02;;;;;;;1.33;1.17;;;;;;;26.75;29.40;94384.03;5043350;27;20051;-67
2022/05/23 13:04:41;;;;;;;2.50;1.02;;;;;;;26.31;30.84;94384.06;5040677;27;20140;-68
2022/05/23 13:07:13;;;;;;;4.30;1.58;;;;;;;26.16;30.84;94382.13;5040657;27;20294;-70
2022/05/23 13:09:54;;;;;;;2.75;1.63;;;;;;;26.03;30.84;94376.81;5052817;27;20066;-74
2022/05/23 13:12:30;;;;;;;2.30;1.40;;;;;;;25.88;30.61;94353.53;5129036;27;20051;-74